Time;durP1;ratioP1;P1;durP2;ratioP2;P2;SDS_P1;SDS_P2;PMS_P1;PMS_P2;Temp;Humidity;BMP_temperature;BMP_pressure;BME280_temperature;BME280_humidity;BME280_pressure;Samples;Min_cycle;Max_cycle;Signal;HPM_P1;HPM_P2
2022/05/03 00:00:58;;;;;;;;;10.00;9.50;;;;;;;;5141549;27;23124;-78
2022/05/03 00:03:34;;;;;;;;;10.00;7.00;;;;;;;;5140975;27;21761;-75
2022/05/03 00:06:18;;;;;;;;;6.75;5.00;;;;;;;;5141681;27;11418;-76
2022/05/03 00:08:48;;;;;;;;;11.00;10.50;;;;;;;;5140735;27;23177;-75
2022/05/03 00:11:23;;;;;;;;;10.75;9.50;;;;;;;;5140534;27;22310;-75
2022/05/03 00:13:51;;;;;;;;;9.00;9.00;;;;;;;;5140548;27;22684;-75
2022/05/03 00:16:17;;;;;;;;;11.50;9.50;;;;;;;;5140495;27;21441;-75
2022/05/03 00:18:43;;;;;;;;;9.50;7.00;;;;;;;;5121682;27;21857;-77
2022/05/03 00:21:10;;;;;;;;;9.00;9.00;;;;;;;;5139739;27;21619;-77
2022/05/03 00:23:36;;;;;;;;;8.25;7.50;;;;;;;;5141805;27;10738;-76
2022/05/03 00:26:01;;;;;;;;;13.00;9.75;;;;;;;;5140736;27;11507;-76
2022/05/03 00:28:27;;;;;;;;;10.00;9.00;;;;;;;;5140919;27;21384;-76
2022/05/03 00:30:52;;;;;;;;;8.75;6.25;;;;;;;;5141216;27;10541;-76
2022/05/03 00:33:19;;;;;;;;;6.75;6.00;;;;;;;;5121924;27;23649;-76
2022/05/03 00:35:45;;;;;;;;;8.50;8.50;;;;;;;;5141068;27;12161;-76
2022/05/03 00:38:10;;;;;;;;;10.25;7.00;;;;;;;;5140893;27;12208;-76
2022/05/03 00:40:44;;;;;;;;;7.00;7.00;;;;;;;;5140859;27;21548;-76
2022/05/03 00:43:20;;;;;;;;;9.00;7.00;;;;;;;;5144096;27;16540;-76
2022/05/03 00:45:47;;;;;;;;;7.00;7.00;;;;;;;;5145022;27;11403;-76
2022/05/03 00:48:21;;;;;;;;;10.00;8.00;;;;;;;;5144882;27;11393;-75
2022/05/03 00:50:55;;;;;;;;;9.50;6.75;;;;;;;;5143910;27;22787;-76
2022/05/03 00:53:24;;;;;;;;;10.00;9.00;;;;;;;;5144082;27;21443;-77
2022/05/03 00:55:52;;;;;;;;;10.00;9.00;;;;;;;;5144465;27;21630;-76
2022/05/03 00:58:36;;;;;;;;;7.50;7.50;;;;;;;;5144656;27;11448;-76
2022/05/03 01:01:01;;;;;;;;;9.00;9.00;;;;;;;;5143963;27;22109;-77
2022/05/03 01:03:34;;;;;;;;;10.00;9.75;;;;;;;;5125558;27;12125;-77
2022/05/03 01:06:16;;;;;;;;;11.50;7.00;;;;;;;;5144250;27;22153;-77
2022/05/03 01:09:00;;;;;;;;;10.50;7.00;;;;;;;;5144016;27;11421;-76
2022/05/03 01:11:33;;;;;;;;;7.50;7.50;;;;;;;;5144659;27;11410;-77
2022/05/03 01:14:04;;;;;;;;;10.00;9.00;;;;;;;;5144545;27;21664;-76
2022/05/03 01:16:33;;;;;;;;;9.00;9.00;;;;;;;;5144076;27;23017;-76
2022/05/03 01:19:14;;;;;;;;;9.00;6.50;;;;;;;;5144039;27;17547;-77
2022/05/03 01:22:03;;;;;;;;;9.75;9.00;;;;;;;;5143933;27;11403;-75
2022/05/03 01:24:32;;;;;;;;;8.75;7.50;;;;;;;;5144446;27;11436;-76
2022/05/03 01:27:13;;;;;;;;;7.00;6.50;;;;;;;;5143719;27;11461;-76
2022/05/03 01:29:40;;;;;;;;;10.25;8.00;;;;;;;;5125638;27;12338;-76
2022/05/03 01:32:09;;;;;;;;;9.50;6.25;;;;;;;;5124921;27;22272;-77
2022/05/03 01:34:35;;;;;;;;;10.75;8.00;;;;;;;;5143616;27;21706;-77
2022/05/03 01:37:00;;;;;;;;;9.25;8.50;;;;;;;;5143680;27;21452;-76
2022/05/03 01:39:25;;;;;;;;;8.50;8.50;;;;;;;;5143630;27;21345;-77
2022/05/03 01:42:00;;;;;;;;;13.50;10.00;;;;;;;;5143770;27;9224;-76
2022/05/03 01:44:44;;;;;;;;;8.00;8.00;;;;;;;;5142973;27;22825;-75
2022/05/03 01:47:28;;;;;;;;;6.50;6.50;;;;;;;;5143239;27;22942;-76
2022/05/03 01:50:18;;;;;;;;;8.00;8.00;;;;;;;;5143481;27;12005;-77
2022/05/03 01:52:49;;;;;;;;;13.00;10.50;;;;;;;;5143412;27;11400;-77
2022/05/03 01:55:33;;;;;;;;;10.50;6.25;;;;;;;;5142885;27;23557;-76
2022/05/03 01:57:59;;;;;;;;;9.25;7.00;;;;;;;;5143192;27;21504;-76
2022/05/03 02:00:24;;;;;;;;;8.50;8.50;;;;;;;;5143565;27;21447;-75
2022/05/03 02:02:56;;;;;;;;;10.00;6.25;;;;;;;;5143214;27;11302;-76
2022/05/03 02:05:40;;;;;;;;;10.00;9.00;;;;;;;;5142774;27;21719;-75
2022/05/03 02:08:09;;;;;;;;;9.50;6.75;;;;;;;;5142880;27;11499;-76
2022/05/03 02:10:45;;;;;;;;;7.00;6.00;;;;;;;;5143078;27;21600;-75
2022/05/03 02:13:28;;;;;;;;;9.75;9.00;;;;;;;;5142772;27;11414;-76
2022/05/03 02:16:00;;;;;;;;;10.00;7.00;;;;;;;;5142940;27;11497;-76
2022/05/03 02:18:25;;;;;;;;;10.00;6.00;;;;;;;;5141992;27;21763;-77
2022/05/03 02:21:09;;;;;;;;;10.75;6.00;;;;;;;;5142367;27;12184;-75
2022/05/03 02:23:40;;;;;;;;;7.00;5.25;;;;;;;;5142942;27;8859;-76
2022/05/03 02:26:26;;;;;;;;;7.00;6.00;;;;;;;;5142281;27;21451;-76
2022/05/03 02:28:56;;;;;;;;;8.50;8.50;;;;;;;;5142863;27;11483;-76
2022/05/03 02:31:34;;;;;;;;;10.25;9.00;;;;;;;;5142795;27;11433;-76
2022/05/03 02:34:19;;;;;;;;;11.00;8.00;;;;;;;;5142354;27;21661;-76
2022/05/03 02:36:56;;;;;;;;;11.75;7.00;;;;;;;;5099932;27;11576;-76
2022/05/03 02:39:24;;;;;;;;;6.75;6.75;;;;;;;;5142089;27;12272;-75
2022/05/03 02:41:50;;;;;;;;;8.75;6.75;;;;;;;;5123348;27;21841;-76
2022/05/03 02:44:17;;;;;;;;;7.25;5.25;;;;;;;;5142224;27;11369;-75
2022/05/03 02:46:51;;;;;;;;;9.00;9.00;;;;;;;;5142660;27;11397;-76
2022/05/03 02:49:26;;;;;;;;;12.50;9.25;;;;;;;;5124188;27;11812;-76
2022/05/03 02:51:58;;;;;;;;;6.00;6.00;;;;;;;;5142294;27;21554;-76
2022/05/03 02:54:33;;;;;;;;;5.75;5.50;;;;;;;;5141732;27;21619;-76
2022/05/03 02:57:02;;;;;;;;;0.00;0.00;;;;;;;;5142476;27;11588;-76
2022/05/03 03:02:41;;;;;;;;;10.00;8.25;;;;;;;;5141263;27;21607;-75
2022/05/03 03:05:08;;;;;;;;;7.25;7.25;;;;;;;;5141747;27;11412;-76
2022/05/03 03:07:41;;;;;;;;;9.00;9.00;;;;;;;;5141746;27;21882;-76
2022/05/03 03:10:07;;;;;;;;;7.50;7.50;;;;;;;;5142901;27;11511;-77
2022/05/03 03:12:40;;;;;;;;;8.75;6.00;;;;;;;;5142301;27;11532;-77
2022/05/03 03:15:07;;;;;;;;;11.25;7.50;;;;;;;;5142052;27;11485;-78
2022/05/03 03:17:35;;;;;;;;;10.00;10.00;;;;;;;;5141699;27;21434;-75
2022/05/03 03:20:09;;;;;;;;;6.25;6.00;;;;;;;;5140709;27;22694;-75
2022/05/03 03:22:39;;;;;;;;;8.25;8.00;;;;;;;;5141307;27;23562;-76
2022/05/03 03:25:06;;;;;;;;;6.75;6.75;;;;;;;;5141951;27;12215;-76
2022/05/03 03:27:32;;;;;;;;;9.00;8.00;;;;;;;;5142587;27;11398;-76
2022/05/03 03:29:58;;;;;;;;;7.00;7.00;;;;;;;;5123528;27;11641;-76
2022/05/03 03:32:27;;;;;;;;;8.50;8.50;;;;;;;;5142330;27;8778;-76
2022/05/03 03:34:57;;;;;;;;;11.00;9.00;;;;;;;;5141503;27;11584;-76
2022/05/03 03:37:24;;;;;;;;;11.75;11.75;;;;;;;;5141521;27;21463;-76
2022/05/03 03:39:49;;;;;;;;;10.00;10.00;;;;;;;;5140681;27;22890;-76
2022/05/03 03:42:14;;;;;;;;;12.00;9.25;;;;;;;;5141214;27;11649;-76
2022/05/03 03:44:39;;;;;;;;;9.00;9.00;;;;;;;;5141184;27;21937;-77
2022/05/03 03:47:05;;;;;;;;;9.50;8.00;;;;;;;;5140631;27;22971;-78
2022/05/03 03:49:30;;;;;;;;;9.50;9.50;;;;;;;;5141976;27;9650;-75
2022/05/03 03:51:59;;;;;;;;;9.25;9.00;;;;;;;;5141965;27;8826;-76
2022/05/03 03:54:24;;;;;;;;;8.75;8.00;;;;;;;;5141781;27;8759;-76
2022/05/03 03:56:51;;;;;;;;;10.00;8.75;;;;;;;;5141319;27;11545;-75
2022/05/03 03:59:17;;;;;;;;;13.50;11.25;;;;;;;;5141601;27;21476;-75
2022/05/03 04:01:43;;;;;;;;;9.50;8.25;;;;;;;;5140855;27;21446;-75
2022/05/03 04:04:09;;;;;;;;;8.00;8.00;;;;;;;;5121882;27;24468;-76
2022/05/03 04:06:35;;;;;;;;;10.00;9.00;;;;;;;;5140962;27;11474;-76
2022/05/03 04:09:00;;;;;;;;;10.25;8.75;;;;;;;;5141147;27;21603;-76
2022/05/03 04:11:26;;;;;;;;;13.50;9.50;;;;;;;;5141590;27;11866;-75
2022/05/03 04:13:52;;;;;;;;;12.50;10.00;;;;;;;;5141203;27;10309;-75
2022/05/03 04:16:17;;;;;;;;;12.25;11.25;;;;;;;;5140795;27;22927;-77
2022/05/03 04:18:45;;;;;;;;;12.00;11.00;;;;;;;;5141574;27;11425;-77
2022/05/03 04:21:14;;;;;;;;;9.00;9.00;;;;;;;;5141201;27;8821;-75
2022/05/03 04:23:39;;;;;;;;;11.00;11.00;;;;;;;;5139543;27;22720;-75
2022/05/03 04:26:04;;;;;;;;;13.50;11.75;;;;;;;;5140350;27;22521;-75
2022/05/03 04:28:29;;;;;;;;;12.75;11.00;;;;;;;;5140797;27;11589;-77
2022/05/03 04:30:54;;;;;;;;;10.25;10.25;;;;;;;;5141445;27;11363;-77
2022/05/03 04:33:20;;;;;;;;;14.75;11.50;;;;;;;;5141445;27;11506;-77
2022/05/03 04:35:45;;;;;;;;;12.50;12.25;;;;;;;;5141029;27;11366;-77
2022/05/03 04:38:11;;;;;;;;;13.00;11.00;;;;;;;;5141260;27;11568;-77
2022/05/03 04:40:36;;;;;;;;;12.00;10.50;;;;;;;;5141097;27;11357;-77
2022/05/03 04:43:02;;;;;;;;;13.25;10.25;;;;;;;;5141131;27;11364;-77
2022/05/03 04:45:27;;;;;;;;;8.00;8.00;;;;;;;;5140256;27;11554;-75
2022/05/03 04:47:52;;;;;;;;;5.00;1.75;;;;;;;;5140535;27;22998;-75
2022/05/03 04:50:17;;;;;;;;;13.00;13.00;;;;;;;;5140057;27;11392;-75
2022/05/03 04:52:43;;;;;;;;;11.75;11.75;;;;;;;;5140044;27;22254;-76
2022/05/03 04:55:08;;;;;;;;;12.25;11.75;;;;;;;;5140407;27;11518;-76
2022/05/03 04:57:34;;;;;;;;;13.00;12.75;;;;;;;;5140055;27;9527;-76
2022/05/03 05:00:00;;;;;;;;;9.50;8.75;;;;;;;;5141092;27;10624;-75
2022/05/03 05:02:25;;;;;;;;;11.75;11.25;;;;;;;;5139940;27;22673;-75
2022/05/03 05:04:51;;;;;;;;;11.50;11.50;;;;;;;;5121221;27;24303;-77
2022/05/03 05:07:16;;;;;;;;;12.75;11.00;;;;;;;;5138932;27;8896;-76
2022/05/03 05:10:23;;;;;;;;;10.00;10.00;;;;;;;;5138655;27;11382;-76
2022/05/03 05:12:27;;;;;;;;;10.75;9.75;;;;;;;;5139313;27;11602;-75
2022/05/03 05:14:53;;;;;;;;;10.25;10.25;;;;;;;;5139403;27;21483;-75
2022/05/03 05:17:18;;;;;;;;;15.75;12.50;;;;;;;;5139366;27;21653;-76
2022/05/03 05:19:43;;;;;;;;;11.25;8.25;;;;;;;;5140038;27;11939;-78
2022/05/03 05:22:08;;;;;;;;;10.25;8.75;;;;;;;;5133085;27;21664;-75
2022/05/03 05:24:34;;;;;;;;;9.75;8.00;;;;;;;;5133641;27;9707;-74
2022/05/03 05:26:59;;;;;;;;;11.50;9.00;;;;;;;;5138804;27;22534;-74
2022/05/03 05:29:24;;;;;;;;;7.75;7.25;;;;;;;;5121339;27;22452;-72
2022/05/03 05:31:49;;;;;;;;;13.50;11.25;;;;;;;;5142968;27;22560;-71
2022/05/03 05:34:15;;;;;;;;;14.00;12.75;;;;;;;;5143366;27;22403;-71
2022/05/03 05:36:42;;;;;;;;;11.75;10.75;;;;;;;;5143937;27;10663;-73
2022/05/03 05:39:07;;;;;;;;;12.00;8.75;;;;;;;;5124490;27;12520;-71
2022/05/03 05:41:32;;;;;;;;;11.50;11.50;;;;;;;;5142990;27;21464;-71
2022/05/03 05:43:58;;;;;;;;;16.67;16.00;;;;;;;;5142509;27;23009;-72
2022/05/03 05:46:23;;;;;;;;;12.50;8.75;;;;;;;;5139838;27;11418;-72
2022/05/03 05:48:48;;;;;;;;;14.00;12.75;;;;;;;;5142720;27;21798;-72
2022/05/03 05:51:14;;;;;;;;;12.25;11.00;;;;;;;;5142412;27;21542;-74
2022/05/03 05:53:39;;;;;;;;;11.00;9.00;;;;;;;;5142401;27;11731;-75
2022/05/03 05:56:07;;;;;;;;;12.25;12.25;;;;;;;;5142754;27;21541;-75
2022/05/03 05:58:32;;;;;;;;;12.00;9.50;;;;;;;;5142895;27;22152;-74
2022/05/03 06:00:58;;;;;;;;;18.00;14.00;;;;;;;;5142691;27;21495;-73
2022/05/03 06:03:24;;;;;;;;;14.00;13.75;;;;;;;;5142755;27;22576;-75
2022/05/03 06:05:49;;;;;;;;;13.00;12.00;;;;;;;;5142798;27;11543;-74
2022/05/03 06:08:14;;;;;;;;;16.75;13.75;;;;;;;;5142922;27;11543;-73
2022/05/03 06:10:40;;;;;;;;;18.75;14.50;;;;;;;;5123743;27;14257;-76
2022/05/03 06:13:05;;;;;;;;;13.25;12.00;;;;;;;;5124167;27;11950;-76
2022/05/03 06:15:30;;;;;;;;;13.75;12.25;;;;;;;;5142158;27;11610;-75
2022/05/03 06:17:56;;;;;;;;;13.00;12.00;;;;;;;;5141387;27;9470;-76
2022/05/03 06:20:21;;;;;;;;;11.75;10.00;;;;;;;;5137689;27;8877;-74
2022/05/03 06:22:46;;;;;;;;;11.25;11.25;;;;;;;;5131834;27;10399;-73
2022/05/03 06:25:11;;;;;;;;;14.00;12.75;;;;;;;;5131386;27;10315;-72
2022/05/03 06:27:38;;;;;;;;;16.75;13.00;;;;;;;;5110764;27;11507;-70
2022/05/03 06:30:04;;;;;;;;;15.75;14.75;;;;;;;;5131201;27;11465;-72
2022/05/03 06:32:29;;;;;;;;;15.25;13.00;;;;;;;;5131343;27;11628;-72
2022/05/03 06:34:54;;;;;;;;;18.50;16.50;;;;;;;;5129478;27;12195;-72
2022/05/03 06:37:20;;;;;;;;;13.50;12.75;;;;;;;;5129890;27;11543;-71
2022/05/03 06:39:45;;;;;;;;;13.25;13.25;;;;;;;;5113592;27;13820;-71
2022/05/03 06:42:10;;;;;;;;;14.75;13.25;;;;;;;;5129954;27;10220;-71
2022/05/03 06:44:37;;;;;;;;;12.25;8.25;;;;;;;;5131527;27;9051;-73
2022/05/03 06:47:03;;;;;;;;;13.75;13.25;;;;;;;;5127343;27;21643;-73
2022/05/03 06:49:28;;;;;;;;;14.75;14.75;;;;;;;;5131536;27;21350;-72
2022/05/03 06:51:53;;;;;;;;;14.75;14.75;;;;;;;;5126940;27;10923;-71
2022/05/03 06:54:19;;;;;;;;;12.50;10.25;;;;;;;;5122022;28;8947;-72
2022/05/03 06:56:44;;;;;;;;;15.75;13.75;;;;;;;;5131817;27;10847;-72
2022/05/03 06:59:09;;;;;;;;;14.00;13.00;;;;;;;;5130529;27;10366;-72
2022/05/03 07:01:37;;;;;;;;;13.25;12.50;;;;;;;;5132645;27;11468;-72
2022/05/03 07:04:03;;;;;;;;;17.00;14.75;;;;;;;;5130922;27;11517;-73
2022/05/03 07:06:28;;;;;;;;;14.00;12.50;;;;;;;;5130540;27;11607;-72
